Time;durP1;ratioP1;P1;durP2;ratioP2;P2;SDS_P1;SDS_P2;PMS_P1;PMS_P2;Temp;Humidity;BMP_temperature;BMP_pressure;BME280_temperature;BME280_humidity;BME280_pressure;Samples;Min_cycle;Max_cycle;Signal;HPM_P1;HPM_P2
2023/01/13 00:01:59;;;;;;;27.10;5.13;;;8.50;99.90;;;;;;5029700;28;20120;-52
2023/01/13 00:04:25;;;;;;;21.17;5.80;;;7.90;99.90;;;;;;5026159;28;20045;-48
2023/01/13 00:06:51;;;;;;;27.17;6.40;;;8.60;99.90;;;;;;5027636;28;20070;-49
2023/01/13 00:09:16;;;;;;;30.38;6.63;;;7.80;99.90;;;;;;5024032;28;20128;-49
2023/01/13 00:11:42;;;;;;;31.33;8.75;;;8.20;99.90;;;;;;5026539;28;20041;-50
2023/01/13 00:14:08;;;;;;;18.02;5.57;;;8.40;99.90;;;;;;5026087;28;20416;-49
2023/01/13 00:16:33;;;;;;;22.15;5.65;;;7.90;99.90;;;;;;5023941;28;20087;-48
2023/01/13 00:18:59;;;;;;;23.38;6.03;;;7.70;99.90;;;;;;5007594;28;20038;-49
2023/01/13 00:21:33;;;;;;;26.38;5.53;;;7.90;99.90;;;;;;5023864;28;20049;-51
2023/01/13 00:23:58;;;;;;;25.08;5.78;;;7.50;99.90;;;;;;5030321;28;20422;-48
2023/01/13 00:26:26;;;;;;;26.45;6.43;;;8.20;99.90;;;;;;5023655;28;20041;-50
2023/01/13 00:28:57;;;;;;;19.23;5.63;;;7.50;99.90;;;;;;5028980;28;20410;-49
2023/01/13 00:31:22;;;;;;;23.17;6.80;;;8.40;99.90;;;;;;5026286;28;20060;-50
2023/01/13 00:33:49;;;;;;;26.80;6.50;;;7.90;99.90;;;;;;5024416;28;20041;-52
2023/01/13 00:36:16;;;;;;;20.10;6.05;;;8.20;99.90;;;;;;5023821;28;20183;-48
2023/01/13 00:38:42;;;;;;;25.25;6.63;;;7.90;99.90;;;;;;5022519;28;20110;-51
2023/01/13 00:41:13;;;;;;;31.63;7.97;;;8.10;99.90;;;;;;5028557;28;20158;-51
2023/01/13 00:43:40;;;;;;;24.67;6.20;;;8.00;99.90;;;;;;5025798;28;20099;-51
2023/01/13 00:46:09;;;;;;;26.45;6.53;;;7.60;99.90;;;;;;5029427;28;20106;-50
2023/01/13 00:48:36;;;;;;;24.80;6.88;;;7.70;99.90;;;;;;5025993;28;20037;-51
2023/01/13 00:51:08;;;;;;;27.00;7.25;;;7.70;99.90;;;;;;5025653;28;20048;-53
2023/01/13 00:53:37;;;;;;;24.65;5.63;;;7.90;99.90;;;;;;5022651;28;20034;-49
2023/01/13 00:56:08;;;;;;;26.33;6.25;;;7.40;99.90;;;;;;5005853;28;20042;-51
2023/01/13 00:58:34;;;;;;;27.80;7.28;;;8.40;99.90;;;;;;5021909;28;20464;-52
2023/01/13 01:01:02;;;;;;;25.20;6.85;;;7.90;99.90;;;;;;5022173;28;20103;-50
2023/01/13 01:03:28;;;;;;;29.55;6.47;;;8.00;99.90;;;;;;5020776;28;20132;-52
2023/01/13 01:05:55;;;;;;;27.77;6.22;;;8.40;99.90;;;;;;5024070;28;20125;-49
2023/01/13 01:08:21;;;;;;;30.40;6.35;;;7.80;99.90;;;;;;5024161;28;20496;-49
2023/01/13 01:10:47;;;;;;;28.55;6.85;;;7.50;99.90;;;;;;5029489;28;20029;-51
2023/01/13 01:13:16;;;;;;;25.08;5.57;;;7.90;99.90;;;;;;5027841;28;20029;-48
2023/01/13 01:15:42;;;;;;;27.38;7.35;;;7.40;99.90;;;;;;5025501;28;20414;-50
2023/01/13 01:18:08;;;;;;;29.13;5.55;;;8.00;99.90;;;;;;5003180;28;20041;-52
2023/01/13 01:20:36;;;;;;;28.23;7.00;;;8.10;99.90;;;;;;5027107;28;20033;-52
2023/01/13 01:23:02;;;;;;;26.25;6.82;;;7.40;99.90;;;;;;5024469;28;20080;-50
2023/01/13 01:25:27;;;;;;;27.95;7.35;;;7.20;99.90;;;;;;5010344;28;20510;-48
2023/01/13 01:27:53;;;;;;;27.42;6.07;;;7.60;99.90;;;;;;5025616;28;20037;-49
2023/01/13 01:30:19;;;;;;;28.88;8.57;;;;;;;;;;5029368;28;20041;-52
2023/01/13 01:32:45;;;;;;;20.85;6.32;;;7.90;99.90;;;;;;5025209;28;20044;-51
2023/01/13 01:35:10;;;;;;;25.33;6.82;;;7.80;99.90;;;;;;5025599;28;20407;-52
2023/01/13 01:37:36;;;;;;;29.38;7.80;;;7.70;99.90;;;;;;5023663;28;20172;-52
2023/01/13 01:40:02;;;;;;;27.48;6.80;;;7.60;99.90;;;;;;5023682;28;20033;-52
2023/01/13 01:45:21;;;;;;;20.05;5.32;;;7.30;99.90;;;;;;5022999;28;20124;-50
2023/01/13 01:47:48;;;;;;;;;;;7.70;99.90;;;;;;5027677;28;20125;-52
2023/01/13 01:50:15;;;;;;;30.48;8.80;;;8.40;99.90;;;;;;5020457;28;19984;-50
2023/01/13 01:52:44;;;;;;;28.77;6.03;;;8.00;99.90;;;;;;5026034;28;20113;-50
2023/01/13 01:55:16;;;;;;;36.78;7.32;;;8.40;99.90;;;;;;5025429;28;20037;-49
2023/01/13 01:57:53;;;;;;;30.50;7.13;;;;;;;;;;5025011;28;20506;-52
2023/01/13 02:00:20;;;;;;;24.13;6.43;;;8.00;99.90;;;;;;5023945;28;20038;-53
2023/01/13 02:02:48;;;;;;;30.67;8.40;;;7.80;99.90;;;;;;5029691;28;20087;-50
2023/01/13 02:05:22;;;;;;;24.70;7.47;;;8.30;99.90;;;;;;5024364;28;20053;-51
2023/01/13 02:07:52;;;;;;;26.77;6.45;;;8.20;99.90;;;;;;5021747;28;20037;-52
2023/01/13 02:10:24;;;;;;;26.45;7.22;;;8.10;99.90;;;;;;5020885;28;20044;-49
2023/01/13 02:12:51;;;;;;;29.35;8.02;;;8.30;99.90;;;;;;5033536;28;20030;-50
2023/01/13 02:15:22;;;;;;;18.75;5.28;;;8.10;99.90;;;;;;5020990;28;20041;-49
2023/01/13 02:18:14;;;;;;;26.25;6.45;;;8.00;99.90;;;;;;5005705;28;20041;-52
2023/01/13 02:20:49;;;;;;;26.13;6.65;;;;;;;;;;5024680;28;20041;-51
2023/01/13 02:26:35;;;;;;;29.85;7.05;;;8.00;99.90;;;;;;5022351;28;20049;-52
2023/01/13 02:31:56;;;;;;;29.80;7.65;;;8.10;99.90;;;;;;5022380;28;20383;-50
2023/01/13 02:34:31;;;;;;;27.52;5.68;;;8.00;99.90;;;;;;5016060;28;20044;-51
2023/01/13 02:37:00;;;;;;;31.17;8.77;;;;;;;;;;5023882;28;20029;-51
2023/01/13 02:39:38;;;;;;;24.92;7.18;;;;;;;;;;5021321;28;20038;-49
2023/01/13 02:45:07;;;;;;;27.10;6.03;;;7.60;99.90;;;;;;5026089;28;20112;-49
2023/01/13 02:47:37;;;;;;;33.47;11.10;;;8.00;99.90;;;;;;5018720;28;20048;-50
2023/01/13 02:50:16;;;;;;;32.45;9.05;;;8.10;99.90;;;;;;5017829;28;20049;-49
2023/01/13 02:52:49;;;;;;;25.30;7.18;;;;;;;;;;5019228;28;20083;-49
2023/01/13 02:55:22;;;;;;;30.95;8.35;;;8.60;99.90;;;;;;5018805;28;20042;-53
2023/01/13 02:57:49;;;;;;;25.27;6.35;;;7.90;99.90;;;;;;5016824;28;20124;-49
2023/01/13 03:00:17;;;;;;;34.58;6.93;;;8.30;99.90;;;;;;5019840;28;20454;-49
2023/01/13 03:02:42;;;;;;;28.95;5.50;;;8.00;99.90;;;;;;5005374;28;20045;-49
2023/01/13 03:05:13;;;;;;;24.88;7.05;;;;;;;;;;5022831;28;20534;-49
2023/01/13 03:07:52;;;;;;;32.55;8.02;;;8.00;99.90;;;;;;5019938;28;20052;-49
2023/01/13 03:11:01;;;;;;;30.92;7.78;;;8.20;99.90;;;;;;5005158;28;20076;-50
2023/01/13 03:13:30;;;;;;;29.42;7.85;;;;;;;;;;5020348;28;20052;-49
2023/01/13 03:16:22;;;;;;;21.17;6.50;;;8.30;99.90;;;;;;5025529;28;20068;-52
2023/01/13 03:19:05;;;;;;;24.92;5.25;;;8.90;99.90;;;;;;5023381;28;20045;-50
2023/01/13 03:21:49;;;;;;;28.48;8.57;;;8.40;99.90;;;;;;5005976;28;20042;-48
2023/01/13 03:24:20;;;;;;;26.13;7.85;;;8.40;99.90;;;;;;5025754;28;20048;-51
2023/01/13 03:27:19;;;;;;;17.35;5.25;;;8.30;99.90;;;;;;5007239;28;20049;-50
2023/01/13 03:29:49;;;;;;;18.92;4.93;;;8.40;99.90;;;;;;5021599;28;20059;-50
2023/01/13 03:32:33;;;;;;;22.48;4.40;;;7.90;99.90;;;;;;5024114;28;20049;-51
2023/01/13 03:35:08;;;;;;;15.68;3.95;;;8.30;99.90;;;;;;5023626;28;20040;-49
2023/01/13 03:37:38;;;;;;;16.15;4.57;;;8.40;99.90;;;;;;5003526;28;20048;-48
2023/01/13 03:40:28;;;;;;;20.33;4.45;;;8.20;99.90;;;;;;5026283;28;20502;-51
2023/01/13 03:46:03;;;;;;;19.52;4.63;;;8.30;99.90;;;;;;5005803;28;20496;-50
2023/01/13 03:48:31;;;;;;;17.30;5.65;;;8.40;99.90;;;;;;5021310;28;20138;-50
2023/01/13 03:51:05;;;;;;;22.92;5.50;;;8.50;99.90;;;;;;5022376;28;20045;-52
2023/01/13 03:53:45;;;;;;;22.90;5.10;;;7.70;99.90;;;;;;5025695;28;20025;-50
2023/01/13 03:56:21;;;;;;;30.85;6.07;;;8.20;99.90;;;;;;5020052;28;20034;-52
2023/01/13 03:58:49;;;;;;;25.17;6.85;;;7.40;99.90;;;;;;5024190;28;20095;-52
2023/01/13 04:01:44;;;;;;;24.17;6.65;;;7.80;99.90;;;;;;5019691;28;20057;-51
2023/01/13 04:04:15;;;;;;;;;;;8.10;99.90;;;;;;5005997;28;20065;-49
2023/01/13 04:07:00;;;;;;;18.55;5.57;;;8.10;99.90;;;;;;5005042;28;20299;-50
2023/01/13 04:09:40;;;;;;;18.88;5.72;;;7.70;99.90;;;;;;5022518;28;20403;-50
2023/01/13 04:12:59;;;;;;;24.35;5.53;;;7.70;99.90;;;;;;5022250;28;20048;-51
2023/01/13 04:15:21;;;;;;;33.17;5.63;;;7.80;99.90;;;;;;5024482;28;20045;-50
2023/01/13 04:17:48;;;;;;;27.73;7.03;;;7.70;99.90;;;;;;5022423;28;20038;-52
2023/01/13 04:20:14;;;;;;;27.08;6.18;;;8.10;99.90;;;;;;5004308;28;20057;-50
2023/01/13 04:22:39;;;;;;;20.73;5.63;;;8.00;99.90;;;;;;5021059;28;20048;-49
2023/01/13 04:25:06;;;;;;;26.48;6.88;;;8.20;99.90;;;;;;5021722;28;20037;-48
2023/01/13 04:27:31;;;;;;;25.77;5.35;;;8.20;99.90;;;;;;5021367;28;20508;-49
2023/01/13 04:29:57;;;;;;;27.05;6.53;;;8.40;99.90;;;;;;5022752;28;20043;-50
2023/01/13 04:32:23;;;;;;;23.58;5.90;;;8.00;99.90;;;;;;5024680;28;20037;-50
2023/01/13 04:34:48;;;;;;;19.60;5.70;;;8.40;99.90;;;;;;5023268;28;20057;-49
2023/01/13 04:37:14;;;;;;;16.75;4.32;;;;;;;;;;5019835;28;20046;-49
2023/01/13 04:39:40;;;;;;;26.52;6.93;;;7.80;99.90;;;;;;5007562;28;20120;-50
2023/01/13 04:42:05;;;;;;;29.63;7.35;;;8.30;99.90;;;;;;5020856;28;20034;-49
2023/01/13 04:44:34;;;;;;;32.58;6.50;;;;;;;;;;5006364;28;20052;-49
2023/01/13 04:47:00;;;;;;;27.83;6.32;;;8.60;99.90;;;;;;5021259;28;20041;-50
2023/01/13 04:49:26;;;;;;;21.42;6.53;;;;;;;;;;5026745;28;20037;-52
2023/01/13 04:51:52;;;;;;;21.95;4.57;;;8.20;99.90;;;;;;5028693;28;20095;-50
2023/01/13 04:54:18;;;;;;;19.83;4.63;;;8.20;99.90;;;;;;5026284;28;20688;-48
2023/01/13 04:56:44;;;;;;;25.20;5.93;;;;;;;;;;5028444;28;20491;-50
2023/01/13 04:59:11;;;;;;;19.13;5.00;;;8.30;87.20;;;;;;5022222;28;20038;-49
2023/01/13 05:01:37;;;;;;;20.90;4.03;;;8.30;92.80;;;;;;5023619;28;20117;-50
2023/01/13 05:04:03;;;;;;;13.45;4.47;;;8.70;99.90;;;;;;5022975;28;20132;-49
2023/01/13 05:06:29;;;;;;;14.80;4.05;;;;;;;;;;5005205;28;20045;-51
2023/01/13 05:08:56;;;;;;;17.33;4.25;;;8.60;95.60;;;;;;5024972;28;20041;-49
2023/01/13 05:17:02;;;;;;;22.88;7.00;;;9.10;78.20;;;;;;5019225;28;21631;-49
2023/01/13 05:19:28;;;;;;;21.77;6.45;;;8.40;80.30;;;;;;5027977;28;20033;-51
2023/01/13 05:27:23;;;;;;;;;;;9.10;89.10;;;;;;5019874;28;20064;-51
2023/01/13 05:29:49;;;;;;;21.52;4.68;;;8.30;90.40;;;;;;5028373;28;20442;-50
2023/01/13 05:32:15;;;;;;;18.17;4.93;;;8.90;99.90;;;;;;5029934;28;20050;-48
2023/01/13 05:34:40;;;;;;;25.10;5.28;;;8.10;96.80;;;;;;5028386;28;20033;-52
2023/01/13 05:37:07;;;;;;;17.77;4.90;;;8.10;95.80;;;;;;5023278;28;20349;-50
2023/01/13 05:43:18;;;;;;;16.63;3.72;;;8.10;99.20;;;;;;5028831;28;20113;-49
2023/01/13 05:45:03;;;;;;;13.50;3.73;;;9.10;85.70;;;;;;5004901;28;20051;-51
2023/01/13 05:47:28;;;;;;;23.15;4.55;;;8.70;83.90;;;;;;5014501;28;20289;-52
2023/01/13 05:49:54;;;;;;;16.88;4.07;;;8.80;93.70;;;;;;5018110;28;20030;-50
2023/01/13 05:52:20;;;;;;;11.55;4.28;;;8.70;99.90;;;;;;5013967;28;20160;-49
2023/01/13 05:54:46;;;;;;;21.13;4.85;;;;;;;;;;5018669;28;20045;-53
2023/01/13 05:57:11;;;;;;;19.38;4.32;;;8.70;99.90;;;;;;5013056;28;20038;-51
2023/01/13 05:59:37;;;;;;;20.25;5.47;;;8.50;99.90;;;;;;5014731;28;20033;-48
2023/01/13 06:02:02;;;;;;;22.50;5.65;;;8.60;99.90;;;;;;5015884;28;21075;-48
2023/01/13 06:04:28;;;;;;;18.92;5.07;;;8.30;99.90;;;;;;5008164;28;20125;-52
2023/01/13 06:06:54;;;;;;;19.35;3.78;;;;;;;;;;4989467;28;20045;-51
2023/01/13 06:09:22;;;;;;;19.80;4.55;;;7.80;99.90;;;;;;5010322;28;20041;-49
2023/01/13 06:11:49;;;;;;;18.00;4.13;;;8.50;99.90;;;;;;5009520;28;20079;-49
2023/01/13 06:14:15;;;;;;;16.20;4.70;;;7.90;99.90;;;;;;5011321;28;20144;-51
2023/01/13 06:16:41;;;;;;;22.15;4.63;;;;;;;;;;5021112;22;20085;-71
2023/01/13 06:19:07;;;;;;;18.42;4.38;;;7.90;99.90;;;;;;5069908;28;20497;-70
2023/01/13 06:21:34;;;;;;;18.85;4.55;;;8.10;99.90;;;;;;5071115;28;20078;-70
2023/01/13 06:24:00;;;;;;;19.17;4.38;;;7.70;99.90;;;;;;5070855;28;20041;-70
2023/01/13 06:26:28;;;;;;;13.88;3.90;;;7.80;99.90;;;;;;5071084;28;20033;-70
2023/01/13 06:28:53;;;;;;;19.52;4.40;;;8.20;99.90;;;;;;5064811;28;20054;-69
2023/01/13 06:31:19;;;;;;;21.38;3.97;;;8.40;99.90;;;;;;5070829;28;20111;-69
2023/01/13 06:33:50;;;;;;;23.67;4.97;;;8.50;99.90;;;;;;5052908;28;20033;-69
2023/01/13 06:36:21;;;;;;;19.20;4.43;;;8.10;99.90;;;;;;5070398;28;20067;-69
2023/01/13 06:38:50;;;;;;;18.90;4.78;;;8.70;99.90;;;;;;5069928;28;20359;-69
2023/01/13 06:43:13;;;;;;;21.88;4.53;;;8.40;99.90;;;;;;5068229;28;20044;-70
2023/01/13 06:44:03;;;;;;;18.13;4.57;;;8.20;99.90;;;;;;5068638;28;20044;-69
2023/01/13 06:46:28;;;;;;;16.20;4.20;;;8.30;99.90;;;;;;5050934;28;20106;-69
2023/01/13 06:48:54;;;;;;;15.95;4.80;;;7.90;99.90;;;;;;5068820;28;20111;-70
2023/01/13 06:51:19;;;;;;;22.73;5.10;;;7.80;99.90;;;;;;5070606;28;20029;-69
2023/01/13 06:53:45;;;;;;;20.05;5.55;;;7.60;99.90;;;;;;5052407;28;20037;-70
2023/01/13 06:56:10;;;;;;;24.13;5.15;;;7.90;99.90;;;;;;5070694;28;20032;-67
2023/01/13 06:58:37;;;;;;;18.48;5.18;;;;;;;;;;5069697;28;20025;-71
2023/01/13 07:01:02;;;;;;;23.95;5.05;;;7.80;99.90;;;;;;5070619;28;20044;-72
2023/01/13 07:03:28;;;;;;;11.38;3.60;;;8.00;99.90;;;;;;5069799;28;20394;-75
2023/01/13 07:05:54;;;;;;;21.98;5.15;;;7.90;99.90;;;;;;5049587;28;20040;-77
2023/01/13 07:08:21;;;;;;;14.55;4.22;;;7.70;99.90;;;;;;5075115;28;20090;-83
2023/01/13 07:10:47;;;;;;;22.33;4.95;;;;;;;;;;5037155;28;20049;-84
2023/01/13 07:16:00;;;;;;;23.23;4.90;;;7.90;99.90;;;;;;5075923;28;20124;-79
2023/01/13 07:18:27;;;;;;;19.60;4.60;;;8.00;99.90;;;;;;5071735;28;20028;-78
2023/01/13 07:20:59;;;;;;;25.15;5.32;;;7.80;99.90;;;;;;5067664;28;20149;-78
2023/01/13 07:23:27;;;;;;;23.40;5.88;;;7.90;99.90;;;;;;5056074;28;20044;-78
2023/01/13 07:25:55;;;;;;;18.40;5.90;;;8.20;99.90;;;;;;5052585;28;20176;-78
2023/01/13 07:28:20;;;;;;;15.88;4.68;;;8.20;99.90;;;;;;5074591;28;20119;-80
2023/01/13 07:30:46;;;;;;;22.85;5.13;;;8.40;99.90;;;;;;5079267;28;20060;-80
2023/01/13 07:33:12;;;;;;;20.10;4.65;;;7.80;99.90;;;;;;5043109;28;20043;-83
2023/01/13 07:35:37;;;;;;;16.77;5.07;;;8.70;99.90;;;;;;5041207;28;20177;-83
2023/01/13 07:38:03;;;;;;;21.60;5.45;;;8.80;99.90;;;;;;5052222;28;20033;-80
2023/01/13 07:40:29;;;;;;;22.52;5.63;;;8.40;99.90;;;;;;5052544;28;20036;-77
2023/01/13 07:45:39;;;;;;;18.73;4.73;;;8.50;99.90;;;;;;5070839;28;20398;-80
2023/01/13 07:48:05;;;;;;;18.65;5.18;;;;;;;;;;5052424;28;20293;-79
2023/01/13 07:50:31;;;;;;;20.73;5.47;;;8.80;99.90;;;;;;5065981;28;20041;-80
2023/01/13 07:52:57;;;;;;;27.88;6.38;;;8.50;93.80;;;;;;5057749;28;20041;-81
2023/01/13 07:55:23;;;;;;;15.75;3.92;;;8.20;95.00;;;;;;5059185;28;20039;-81
2023/01/13 07:57:49;;;;;;;25.75;5.70;;;;;;;;;;5039424;28;20064;-82
2023/01/13 08:00:15;;;;;;;18.50;5.15;;;8.00;99.90;;;;;;5076444;28;20036;-80
2023/01/13 08:02:41;;;;;;;22.17;5.05;;;;;;;;;;5057983;28;20036;-76
2023/01/13 08:05:07;;;;;;;24.20;4.40;;;8.50;96.20;;;;;;5047703;28;20171;-79
2023/01/13 08:07:33;;;;;;;21.65;4.85;;;8.10;99.90;;;;;;5039805;28;20037;-77
2023/01/13 08:09:59;;;;;;;22.25;4.03;;;9.00;74.50;;;;;;5034282;28;20055;-76
2023/01/13 08:15:09;;;;;;;21.10;5.50;;;9.00;54.80;;;;;;5054323;28;20045;-78
2023/01/13 08:17:35;;;;;;;19.50;4.53;;;8.40;73.50;;;;;;5071025;28;20041;-78
2023/01/13 08:20:05;;;;;;;16.50;4.43;;;8.20;99.90;;;;;;5074882;28;20490;-78
2023/01/13 08:22:32;;;;;;;26.10;5.28;;;8.20;99.90;;;;;;5057686;28;20110;-78
2023/01/13 08:24:58;;;;;;;19.13;4.22;;;8.30;99.90;;;;;;5055750;28;20438;-78
2023/01/13 08:27:24;;;;;;;21.65;4.63;;;9.10;99.90;;;;;;5073956;28;20063;-78
2023/01/13 08:29:49;;;;;;;16.35;3.88;;;8.50;99.90;;;;;;5075193;28;20040;-79
2023/01/13 08:32:15;;;;;;;15.13;3.47;;;8.00;99.90;;;;;;5054781;28;20025;-78
2023/01/13 08:34:40;;;;;;;20.88;5.15;;;7.80;99.90;;;;;;5064502;28;20079;-79
2023/01/13 08:37:06;;;;;;;31.58;6.85;;;7.80;99.90;;;;;;5040413;28;20037;-78
2023/01/13 08:39:32;;;;;;;22.15;4.40;;;7.80;99.90;;;;;;5057267;28;20029;-80
2023/01/13 08:41:57;;;;;;;18.15;5.47;;;7.40;99.90;;;;;;5053191;28;20037;-79
2023/01/13 08:44:29;;;;;;;28.20;5.40;;;7.30;99.90;;;;;;5052068;28;20035;-78
2023/01/13 08:46:55;;;;;;;29.73;5.82;;;7.30;99.90;;;;;;5050246;28;20047;-79
2023/01/13 08:49:23;;;;;;;22.63;4.90;;;7.50;99.90;;;;;;5053790;28;20875;-80
2023/01/13 08:51:49;;;;;;;31.83;6.82;;;7.90;99.90;;;;;;5039207;28;20051;-79
2023/01/13 08:54:16;;;;;;;16.42;4.30;;;6.70;99.90;;;;;;5055035;28;20047;-79
2023/01/13 08:56:42;;;;;;;25.65;5.05;;;6.90;99.90;;;;;;5035106;28;20048;-78
2023/01/13 08:59:16;;;;;;;18.27;4.45;;;7.10;99.90;;;;;;5059147;28;20044;-79
2023/01/13 09:01:43;;;;;;;20.33;4.85;;;7.50;99.90;;;;;;5052655;28;20040;-79
2023/01/13 09:04:21;;;;;;;23.73;5.72;;;7.20;99.90;;;;;;5052293;28;20040;-75
2023/01/13 09:06:47;;;;;;;29.48;6.03;;;;;;;;;;5069090;28;20154;-70
2023/01/13 09:09:13;;;;;;;27.35;7.45;;;7.20;1.00;;;;;;5068977;28;20039;-70
2023/01/13 09:14:28;;;;;;;25.88;6.47;;;;;;;;;;5067622;28;20150;-72
2023/01/13 09:16:53;;;;;;;23.85;5.68;;;6.60;1.00;;;;;;5063834;28;20029;-71
2023/01/13 09:19:19;;;;;;;17.27;5.88;;;6.80;1.00;;;;;;5070905;28;20117;-74
2023/01/13 09:21:45;;;;;;;24.95;6.30;;;7.00;1.00;;;;;;5052994;28;20037;-73
2023/01/13 09:24:10;;;;;;;22.48;5.75;;;7.10;1.00;;;;;;5053291;28;20068;-73
2023/01/13 09:26:37;;;;;;;27.33;6.88;;;6.90;1.00;;;;;;5054248;28;20029;-73
2023/01/13 09:29:03;;;;;;;23.73;5.18;;;7.50;1.00;;;;;;5070167;28;20089;-73
2023/01/13 09:31:28;;;;;;;35.38;6.82;;;7.20;1.00;;;;;;5070567;28;20063;-74
2023/01/13 09:36:39;;;;;;;25.00;6.00;;;7.40;99.90;;;;;;5070832;28;20044;-79
2023/01/13 09:39:05;;;;;;;23.98;4.97;;;6.50;99.90;;;;;;5051503;28;20051;-75
2023/01/13 09:44:23;;;;;;;25.45;4.93;;;7.40;99.90;;;;;;5052788;28;20044;-79
2023/01/13 09:46:54;;;;;;;23.27;5.38;;;7.30;99.90;;;;;;5053907;28;20043;-80
2023/01/13 09:49:24;;;;;;;21.48;4.80;;;7.20;99.90;;;;;;5071090;28;20036;-79
2023/01/13 09:52:15;;;;;;;19.50;4.88;;;7.40;99.90;;;;;;5055697;28;20060;-79
2023/01/13 09:54:53;;;;;;;16.83;5.60;;;7.10;99.90;;;;;;5072610;28;20037;-80
2023/01/13 09:57:20;;;;;;;19.30;5.22;;;7.50;99.90;;;;;;5036450;28;20033;-76
2023/01/13 09:59:47;;;;;;;17.20;4.43;;;7.70;99.90;;;;;;5036399;28;20486;-76
2023/01/13 10:02:31;;;;;;;20.02;3.83;;;7.50;99.90;;;;;;5052221;28;20402;-72
2023/01/13 10:05:20;;;;;;;23.98;4.88;;;7.10;99.90;;;;;;5051849;28;20054;-72
2023/01/13 10:07:50;;;;;;;20.65;4.60;;;7.80;99.90;;;;;;5069912;28;20032;-72
2023/01/13 10:10:47;;;;;;;18.05;5.60;;;7.70;99.90;;;;;;5047314;28;20072;-73
2023/01/13 10:13:18;;;;;;;24.85;5.45;;;7.90;99.90;;;;;;5046482;28;20053;-72
2023/01/13 10:16:17;;;;;;;23.98;4.22;;;7.50;99.90;;;;;;5068763;28;20033;-72
2023/01/13 10:19:07;;;;;;;22.85;4.93;;;7.80;99.90;;;;;;5067524;28;20040;-72
2023/01/13 10:21:57;;;;;;;20.27;4.43;;;7.70;99.90;;;;;;5067666;28;20517;-73
2023/01/13 10:24:50;;;;;;;19.25;4.38;;;7.30;99.90;;;;;;5061156;28;20493;-72
2023/01/13 10:27:35;;;;;;;19.83;4.70;;;7.40;99.90;;;;;;5049007;28;20086;-71
2023/01/13 10:30:20;;;;;;;18.10;5.40;;;8.20;99.90;;;;;;5063471;28;20047;-71
2023/01/13 10:32:54;;;;;;;20.40;5.68;;;8.00;99.90;;;;;;5051491;28;20109;-72
2023/01/13 10:35:48;;;;;;;17.53;4.70;;;7.90;99.90;;;;;;5049981;28;20041;-72
2023/01/13 10:38:39;;;;;;;20.40;4.20;;;7.90;99.90;;;;;;5066263;28;20078;-72
2023/01/13 10:41:13;;;;;;;20.08;4.35;;;7.90;99.90;;;;;;5039314;28;20135;-72
2023/01/13 10:43:42;;;;;;;34.85;6.57;;;8.20;99.90;;;;;;5068196;28;20567;-72
2023/01/13 10:46:15;;;;;;;14.77;4.22;;;8.50;99.90;;;;;;5064421;28;20068;-71
2023/01/13 10:48:50;;;;;;;17.95;4.93;;;7.80;99.90;;;;;;5050007;28;20032;-72
2023/01/13 10:51:22;;;;;;;21.60;5.28;;;7.60;99.90;;;;;;5070397;28;20041;-71
2023/01/13 10:54:01;;;;;;;19.48;4.35;;;8.00;99.90;;;;;;5068906;28;20102;-71
2023/01/13 10:56:29;;;;;;;17.77;3.83;;;;;;;;;;5051385;28;20044;-73
2023/01/13 10:59:28;;;;;;;17.35;4.50;;;8.10;99.90;;;;;;5050416;28;20527;-72
2023/01/13 11:01:57;;;;;;;19.75;4.75;;;8.10;99.90;;;;;;5068881;28;20119;-72
2023/01/13 11:04:39;;;;;;;18.83;4.78;;;7.80;99.90;;;;;;5070021;28;20082;-72
2023/01/13 11:07:32;;;;;;;18.23;5.50;;;7.90;99.90;;;;;;5044933;28;20033;-72
2023/01/13 11:10:15;;;;;;;17.88;4.10;;;8.30;99.90;;;;;;5068579;28;20040;-73
2023/01/13 11:12:50;;;;;;;21.95;4.97;;;8.40;99.90;;;;;;5050660;28;20040;-73
2023/01/13 11:15:21;;;;;;;16.33;4.75;;;8.30;99.90;;;;;;5046794;28;20041;-72
2023/01/13 11:18:00;;;;;;;15.18;4.50;;;8.70;99.90;;;;;;5064816;28;20396;-72
2023/01/13 11:20:35;;;;;;;21.10;5.65;;;9.00;99.90;;;;;;5048721;28;20703;-72
2023/01/13 11:23:10;;;;;;;14.77;3.90;;;8.80;99.90;;;;;;5031071;28;20072;-72
2023/01/13 11:25:41;;;;;;;;;;;9.30;99.90;;;;;;5061124;28;20060;-73
2023/01/13 11:28:16;;;;;;;15.55;3.97;;;8.20;99.90;;;;;;5052474;28;19927;-73
2023/01/13 11:31:11;;;;;;;19.45;4.53;;;8.90;99.90;;;;;;5034205;28;20037;-72
2023/01/13 11:33:44;;;;;;;20.55;3.97;;;8.20;99.90;;;;;;5066321;28;20036;-72
2023/01/13 11:36:24;;;;;;;17.00;4.15;;;8.10;99.90;;;;;;5050452;28;20439;-72
2023/01/13 11:39:08;;;;;;;18.02;4.03;;;8.00;99.90;;;;;;5049374;28;20520;-72
2023/01/13 11:41:44;;;;;;;18.00;5.30;;;9.00;99.90;;;;;;5068620;28;20051;-72
2023/01/13 11:44:09;;;;;;;22.10;5.30;;;8.40;99.90;;;;;;5050811;28;20040;-72
2023/01/13 11:46:35;;;;;;;13.30;3.13;;;8.80;99.90;;;;;;5050769;28;20112;-72
2023/01/13 11:49:02;;;;;;;16.25;3.55;;;8.90;99.90;;;;;;5067559;28;20464;-72
2023/01/13 11:51:32;;;;;;;19.17;3.63;;;8.30;99.90;;;;;;5050386;28;20157;-72
2023/01/13 11:54:09;;;;;;;15.55;4.75;;;8.90;99.90;;;;;;5063034;28;20063;-71
2023/01/13 11:56:50;;;;;;;18.10;3.95;;;10.50;54.90;;;;;;5054030;28;20037;-71
2023/01/13 11:59:48;;;;;;;15.50;3.72;;;10.80;1.00;;;;;;5051879;28;20045;-72
2023/01/13 12:02:28;;;;;;;15.77;3.85;;;10.30;1.00;;;;;;5022014;28;20117;-71
2023/01/13 12:05:15;;;;;;;10.45;4.03;;;10.30;16.70;;;;;;5068916;28;20028;-71
2023/01/13 12:08:00;;;;;;;13.50;3.92;;;;;;;;;;5042249;28;20049;-71
2023/01/13 12:10:37;;;;;;;14.50;4.82;;;11.30;1.00;;;;;;5052236;28;20452;-70
2023/01/13 12:13:23;;;;;;;13.38;3.92;;;11.30;1.00;;;;;;5071952;28;20063;-71
2023/01/13 12:16:03;;;;;;;8.73;3.40;;;11.10;1.00;;;;;;5071438;28;20174;-70
2023/01/13 12:19:12;;;;;;;20.73;5.70;;;10.10;28.30;;;;;;5072548;28;20093;-71
2023/01/13 12:22:16;;;;;;;14.48;4.25;;;10.40;17.10;;;;;;5069804;28;20048;-70
2023/01/13 12:24:51;;;;;;;15.43;3.53;;;9.20;38.50;;;;;;5049479;28;20040;-70
2023/01/13 12:27:58;;;;;;;11.75;3.40;;;10.00;47.70;;;;;;5053551;28;20076;-70
2023/01/13 12:30:50;;;;;;;16.55;3.83;;;10.10;3.60;;;;;;5051390;28;20055;-70
2023/01/13 12:33:19;;;;;;;14.07;2.90;;;9.70;99.90;;;;;;5062875;28;20075;-70
2023/01/13 12:36:00;;;;;;;14.43;3.92;;;9.20;99.90;;;;;;5071919;28;20043;-69
2023/01/13 12:38:47;;;;;;;13.98;3.50;;;9.60;99.90;;;;;;5069607;28;20093;-69
2023/01/13 12:41:23;;;;;;;15.63;4.35;;;9.30;99.90;;;;;;5071323;28;20688;-70
2023/01/13 12:46:42;;;;;;;13.80;4.28;;;9.50;1.00;;;;;;5052145;28;20052;-70
2023/01/13 12:49:27;;;;;;;18.50;4.32;;;8.90;99.90;;;;;;5070586;28;20119;-70
2023/01/13 12:51:53;;;;;;;31.17;4.93;;;8.30;99.90;;;;;;5050654;28;20025;-70
2023/01/13 12:54:43;;;;;;;16.75;3.95;;;8.90;99.90;;;;;;5071433;28;20044;-71
2023/01/13 12:57:15;;;;;;;15.05;3.25;;;8.50;99.90;;;;;;5070501;28;20516;-70
2023/01/13 12:59:47;;;;;;;14.63;3.63;;;8.70;99.90;;;;;;5053928;28;20497;-69
2023/01/13 13:02:16;;;;;;;23.38;4.75;;;8.60;99.90;;;;;;5078650;28;20048;-71
2023/01/13 13:04:50;;;;;;;13.52;4.90;;;8.20;99.90;;;;;;5070790;28;20037;-70
2023/01/13 13:07:36;;;;;;;11.43;3.45;;;8.20;99.90;;;;;;5053081;28;20067;-70
2023/01/13 13:10:23;;;;;;;10.63;3.65;;;7.80;99.90;;;;;;5068208;28;20044;-70
2023/01/13 13:15:37;;;;;;;14.10;3.22;;;8.00;99.90;;;;;;5071850;28;20116;-70
2023/01/13 13:18:15;;;;;;;14.68;4.20;;;8.10;99.90;;;;;;5070915;28;20751;-70
2023/01/13 13:20:55;;;;;;;13.90;3.80;;;8.70;99.90;;;;;;5036157;28;20099;-69
2023/01/13 13:23:35;;;;;;;10.82;3.28;;;8.40;99.90;;;;;;5061918;28;20044;-70
2023/01/13 13:26:31;;;;;;;13.57;3.17;;;8.30;99.90;;;;;;5048104;28;20062;-70
2023/01/13 13:29:34;;;;;;;11.32;2.60;;;8.90;99.90;;;;;;5045454;28;20085;-70
2023/01/13 13:32:00;;;;;;;12.88;3.15;;;;;;;;;;5064821;28;20045;-70
2023/01/13 13:34:42;;;;;;;13.63;3.25;;;8.80;32.00;;;;;;5053197;28;20105;-69
2023/01/13 13:37:26;;;;;;;11.75;3.38;;;9.10;52.00;;;;;;5070699;28;20072;-69
2023/01/13 13:48:26;;;;;;;14.48;3.78;;;8.50;17.30;;;;;;5046557;28;20044;-70
2023/01/13 13:51:01;;;;;;;17.00;3.30;;;8.80;23.20;;;;;;5053543;28;20028;-70
2023/01/13 13:53:34;;;;;;;15.23;3.50;;;9.30;2.70;;;;;;5051900;28;20048;-70
2023/01/13 13:56:01;;;;;;;12.18;3.72;;;9.90;24.90;;;;;;5052431;28;20107;-71
2023/01/13 13:58:30;;;;;;;21.35;4.68;;;8.30;99.90;;;;;;5067551;28;20032;-70
2023/01/13 14:00:56;;;;;;;16.75;4.75;;;8.30;99.90;;;;;;5044552;28;20040;-70
2023/01/13 14:03:29;;;;;;;15.40;4.35;;;8.80;99.90;;;;;;5071228;28;20509;-70
2023/01/13 14:06:01;;;;;;;21.65;4.45;;;8.30;99.90;;;;;;5066936;28;20112;-69
2023/01/13 14:08:29;;;;;;;15.00;3.70;;;8.30;99.90;;;;;;5069786;28;20051;-70
2023/01/13 14:10:55;;;;;;;11.32;2.95;;;8.50;99.90;;;;;;5051645;28;20037;-70
2023/01/13 14:13:25;;;;;;;18.00;3.33;;;7.90;99.90;;;;;;5052460;28;20501;-71
2023/01/13 14:16:03;;;;;;;16.08;4.07;;;8.40;98.30;;;;;;5051320;28;20032;-71
2023/01/13 14:18:32;;;;;;;18.20;3.60;;;8.50;49.10;;;;;;5050755;28;20048;-71
2023/01/13 14:21:03;;;;;;;12.07;3.63;;;8.80;29.00;;;;;;5068140;28;20040;-69